Time;durP1;ratioP1;P1;durP2;ratioP2;P2;SDS_P1;SDS_P2;PMS_P1;PMS_P2;Temp;Humidity;BMP_temperature;BMP_pressure;BME280_temperature;BME280_humidity;BME280_pressure;Samples;Min_cycle;Max_cycle;Signal;HPM_P1;HPM_P2
2022/03/29 00:03:40;;;;;;;20.87;16.23;;;;;;;14.04;36.68;97672.56;8353800;28;20232;-94
2022/03/29 00:07:45;;;;;;;22.73;15.30;;;;;;;14.01;36.96;97664.09;8336873;28;20236;-93
2022/03/29 00:11:48;;;;;;;19.37;16.07;;;;;;;13.95;36.69;97660.13;8353787;28;20244;-92
2022/03/29 00:16:06;;;;;;;21.07;16.73;;;;;;;13.95;36.25;97657.50;8270922;28;20229;-92
2022/03/29 00:20:13;;;;;;;21.50;16.73;;;;;;;14.00;36.16;97652.84;8325069;28;20240;-86
2022/03/29 00:24:18;;;;;;;23.17;16.20;;;;;;;13.83;36.66;97645.28;8351505;28;20318;-89
2022/03/29 00:28:21;;;;;;;24.47;16.80;;;;;;;13.78;36.06;97636.91;8351992;28;20243;-89
2022/03/29 00:32:24;;;;;;;23.40;16.53;;;;;;;13.75;36.66;97634.53;8351811;28;20235;-90
2022/03/29 00:36:29;;;;;;;27.77;17.13;;;;;;;13.81;36.49;97636.75;8351916;28;20279;-89
2022/03/29 00:40:32;;;;;;;20.57;16.40;;;;;;;13.88;36.53;97633.66;8351807;28;20303;-90
2022/03/29 00:44:38;;;;;;;23.07;16.37;;;;;;;13.83;36.44;97630.50;8350256;28;20448;-89
2022/03/29 00:48:41;;;;;;;21.90;16.93;;;;;;;13.79;36.69;97628.19;8351280;28;20235;-89
2022/03/29 00:52:46;;;;;;;25.57;16.83;;;;;;;13.66;36.25;97625.50;8334327;28;20228;-89
2022/03/29 00:56:49;;;;;;;25.27;15.43;;;;;;;13.67;36.63;97627.19;8351188;28;20232;-89
2022/03/29 01:00:54;;;;;;;20.93;15.47;;;;;;;13.59;37.50;97624.22;8351952;28;20253;-90
2022/03/29 01:04:57;;;;;;;19.60;15.03;;;;;;;13.51;37.34;97619.47;8350638;28;20416;-91
2022/03/29 01:09:02;;;;;;;18.10;15.10;;;;;;;13.52;37.20;97620.31;8350829;28;20236;-91
2022/03/29 01:13:06;;;;;;;18.00;15.50;;;;;;;13.51;37.07;97597.84;8351130;28;20239;-90
2022/03/29 01:21:34;;;;;;;22.93;16.43;;;;;;;13.43;36.67;97606.13;8355804;28;20231;-90
2022/03/29 01:25:39;;;;;;;20.47;16.17;;;;;;;13.33;37.06;97590.25;8353961;28;20238;-89
2022/03/29 01:29:43;;;;;;;21.63;15.37;;;;;;;13.29;37.34;97593.94;8349453;28;20231;-90
2022/03/29 01:33:46;;;;;;;24.65;14.95;;;;;;;13.35;37.30;97583.19;8349115;28;20223;-90
2022/03/29 01:37:50;;;;;;;22.23;15.43;;;;;;;13.19;37.64;97574.63;8350205;28;20264;-90
2022/03/29 01:41:55;;;;;;;22.93;16.10;;;;;;;13.17;37.60;97581.69;8349543;28;20232;-90
2022/03/29 01:45:58;;;;;;;22.03;16.33;;;;;;;13.10;37.90;97571.66;8350414;28;20209;-91
2022/03/29 01:50:04;;;;;;;23.87;16.63;;;;;;;13.09;38.16;97556.16;8352169;28;20514;-90
2022/03/29 01:54:07;;;;;;;19.63;15.67;;;;;;;13.11;38.23;97546.50;8350671;28;20211;-91
2022/03/29 01:58:12;;;;;;;21.37;14.70;;;;;;;12.98;38.79;97549.00;8349930;28;20204;-88
2022/03/29 02:02:15;;;;;;;25.80;17.27;;;;;;;12.92;38.83;97559.78;8350526;28;20208;-88
2022/03/29 02:06:18;;;;;;;23.53;17.73;;;;;;;12.90;38.65;97538.25;8348556;28;20236;-88
2022/03/29 02:10:22;;;;;;;22.77;16.43;;;;;;;13.00;38.90;97541.09;8348481;28;20236;-88
2022/03/29 02:14:27;;;;;;;23.93;16.53;;;;;;;12.94;38.59;97534.53;8348344;28;20452;-88
2022/03/29 02:18:30;;;;;;;23.80;17.70;;;;;;;12.81;38.97;97534.44;8346718;28;20236;-88
2022/03/29 02:22:33;;;;;;;25.90;17.57;;;;;;;12.91;39.06;97525.16;8350629;28;20231;-89
2022/03/29 02:26:36;;;;;;;23.43;17.27;;;;;;;12.83;39.06;97518.75;8360114;28;20263;-89
2022/03/29 02:30:41;;;;;;;18.73;16.17;;;;;;;12.84;39.03;97513.47;8348267;28;20235;-87
2022/03/29 02:34:45;;;;;;;20.80;15.43;;;;;;;12.87;39.63;97509.81;8347726;28;20232;-88
2022/03/29 02:38:49;;;;;;;20.93;15.97;;;;;;;12.88;39.33;97506.31;8346529;28;20239;-88
2022/03/29 02:42:53;;;;;;;23.60;15.83;;;;;;;12.85;39.70;97494.34;8347855;28;20238;-89
2022/03/29 02:46:58;;;;;;;20.20;15.00;;;;;;;12.81;39.10;97498.06;8346305;28;20228;-90
2022/03/29 02:51:04;;;;;;;24.53;16.03;;;;;;;12.82;39.06;97493.69;8330430;28;20235;-89
2022/03/29 02:55:10;;;;;;;18.70;15.03;;;;;;;12.70;38.91;97492.69;8346638;28;20341;-89
2022/03/29 02:59:14;;;;;;;26.47;15.87;;;;;;;12.66;39.37;97483.38;8346275;28;20235;-88
2022/03/29 03:03:19;;;;;;;25.77;16.73;;;;;;;12.56;39.73;97482.28;8348243;28;20345;-89
2022/03/29 03:07:23;;;;;;;20.13;15.20;;;;;;;12.29;40.22;97486.41;8347288;28;20420;-88
2022/03/29 03:11:26;;;;;;;21.80;15.53;;;;;;;12.33;40.57;97487.06;8346518;28;20251;-89
2022/03/29 03:15:29;;;;;;;21.20;14.33;;;;;;;12.42;40.32;97483.94;8347492;28;20244;-89
2022/03/29 03:19:34;;;;;;;22.13;14.87;;;;;;;12.39;40.27;97485.88;8346178;28;20499;-90
2022/03/29 03:23:37;;;;;;;20.93;14.70;;;;;;;12.40;40.49;97475.41;8346427;28;20294;-90
2022/03/29 03:27:41;;;;;;;21.87;15.53;;;;;;;12.32;40.31;97490.63;8347488;28;20234;-89
2022/03/29 03:31:44;;;;;;;18.43;15.00;;;;;;;12.28;40.54;97482.16;8350191;28;20236;-89
2022/03/29 03:35:49;;;;;;;18.87;15.77;;;;;;;12.27;40.58;97479.66;8353123;28;20538;-89
2022/03/29 03:39:52;;;;;;;22.30;15.90;;;;;;;12.15;40.94;97486.41;8353348;28;20232;-90
2022/03/29 03:43:55;;;;;;;21.30;15.10;;;;;;;12.00;40.97;97475.16;8319769;28;20234;-92
2022/03/29 03:47:59;;;;;;;19.50;15.10;;;;;;;11.98;41.26;97482.19;8351732;28;20431;-90
2022/03/29 03:52:06;;;;;;;21.13;15.10;;;;;;;11.98;41.14;97477.00;8352504;28;20235;-90
2022/03/29 03:56:09;;;;;;;19.13;14.90;;;;;;;12.01;41.16;97484.59;8343750;28;20236;-88
2022/03/29 04:00:13;;;;;;;19.63;15.07;;;;;;;11.90;41.18;97474.84;8352140;28;20539;-90
2022/03/29 04:04:16;;;;;;;22.77;14.80;;;;;;;11.78;41.25;97469.50;8351736;28;20243;-89
2022/03/29 04:08:21;;;;;;;20.80;15.07;;;;;;;11.81;41.01;97477.94;8341039;28;20240;-90
2022/03/29 04:12:24;;;;;;;22.00;15.90;;;;;;;11.75;40.82;97465.31;8354273;28;20224;-90
2022/03/29 04:16:28;;;;;;;23.63;15.27;;;;;;;11.69;41.17;97466.50;8354381;28;20543;-89
2022/03/29 04:20:31;;;;;;;21.07;15.83;;;;;;;11.57;40.94;97455.97;8333868;28;20232;-89
2022/03/29 04:24:36;;;;;;;21.43;16.10;;;;;;;11.46;40.83;97444.47;8351673;28;20232;-91
2022/03/29 04:28:40;;;;;;;27.53;16.07;;;;;;;11.54;41.35;97450.03;8350360;28;20240;-91
2022/03/29 04:32:44;;;;;;;22.67;16.13;;;;;;;11.40;40.88;97434.41;8350687;28;20239;-94
2022/03/29 04:36:47;;;;;;;19.80;15.43;;;;;;;11.42;41.49;97453.31;8350271;28;20243;-92
2022/03/29 04:40:52;;;;;;;25.33;15.40;;;;;;;11.44;41.26;97448.06;8351307;28;20235;-92
2022/03/29 04:44:55;;;;;;;20.67;15.70;;;;;;;11.37;41.23;97441.56;8351648;28;20224;-92
2022/03/29 04:48:59;;;;;;;21.50;15.33;;;;;;;11.28;41.94;97448.06;8350056;28;20239;-91
2022/03/29 04:53:07;;;;;;;22.27;16.20;;;;;;;11.34;41.79;97442.53;8351022;28;20232;-90
2022/03/29 04:57:12;;;;;;;19.97;15.60;;;;;;;11.26;41.71;97442.97;8349932;28;20240;-91
2022/03/29 05:01:17;;;;;;;22.00;16.43;;;;;;;11.34;41.64;97445.13;8334760;28;20413;-92
2022/03/29 05:05:20;;;;;;;22.20;16.97;;;;;;;11.25;42.11;97436.13;8361084;28;20243;-89
2022/03/29 05:09:23;;;;;;;20.57;16.60;;;;;;;11.25;42.45;97440.47;8353452;28;20277;-92
2022/03/29 05:13:28;;;;;;;22.33;16.77;;;;;;;11.23;42.34;97430.19;8334951;28;20224;-92
2022/03/29 05:17:33;;;;;;;19.57;16.10;;;;;;;11.14;42.82;97428.94;8335390;28;20232;-91
2022/03/29 05:21:37;;;;;;;23.03;15.97;;;;;;;11.21;42.59;97429.41;8342350;28;20232;-92
2022/03/29 05:25:40;;;;;;;22.33;16.53;;;;;;;11.29;42.38;97427.25;8346894;28;20228;-93
2022/03/29 05:29:45;;;;;;;21.10;16.43;;;;;;;11.26;42.77;97440.38;8310765;28;20228;-94
2022/03/29 05:33:48;;;;;;;19.77;16.40;;;;;;;11.40;42.39;97433.59;8336127;28;20527;-93
2022/03/29 05:37:52;;;;;;;26.20;17.27;;;;;;;11.30;42.49;97428.91;8341634;28;20228;-93
2022/03/29 05:41:55;;;;;;;30.60;15.87;;;;;;;11.31;42.64;97425.41;8348683;28;20235;-90
2022/03/29 05:50:25;;;;;;;27.30;15.90;;;;;;;11.39;42.06;97422.41;8349789;28;20232;-94
2022/03/29 05:54:28;;;;;;;26.63;16.10;;;;;;;11.29;42.35;97423.81;8349144;28;20236;-93
2022/03/29 05:58:31;;;;;;;19.70;16.50;;;;;;;11.50;41.76;97421.81;8348395;28;20295;-93
2022/03/29 06:02:36;;;;;;;28.70;17.23;;;;;;;11.58;41.84;97419.59;8348519;28;20433;-91
2022/03/29 06:06:40;;;;;;;30.33;18.00;;;;;;;11.69;41.75;97427.59;8347720;28;20239;-90
2022/03/29 06:10:43;;;;;;;22.97;15.87;;;;;;;11.79;41.22;97416.69;8348324;28;20238;-90
2022/03/29 06:14:46;;;;;;;25.30;17.40;;;;;;;11.82;41.16;97419.94;8348325;28;20556;-89
2022/03/29 06:18:51;;;;;;;42.17;18.13;;;;;;;11.84;41.27;97425.03;8346584;28;20412;-88
2022/03/29 06:22:54;;;;;;;27.43;17.03;;;;;;;12.18;40.94;97425.69;8348402;28;20240;-90
2022/03/29 06:26:57;;;;;;;25.67;17.03;;;;;;;12.16;40.96;97430.13;8347255;28;20228;-90
2022/03/29 06:31:00;;;;;;;28.20;18.13;;;;;;;12.24;40.81;97428.75;8348348;28;20240;-90
2022/03/29 06:35:08;;;;;;;25.37;18.47;;;;;;;12.43;40.58;97430.22;8348034;28;20247;-89
2022/03/29 06:39:12;;;;;;;25.17;17.80;;;;;;;12.67;40.13;97431.34;8347836;28;20232;-92
2022/03/29 06:43:16;;;;;;;26.23;17.47;;;;;;;12.75;40.44;97430.88;8347699;28;20246;-94
2022/03/29 06:47:19;;;;;;;22.53;17.33;;;;;;;12.70;40.70;97425.97;8348871;28;20238;-92
2022/03/29 06:51:24;;;;;;;23.83;16.93;;;;;;;12.75;40.79;97415.28;8347921;28;20236;-92
2022/03/29 06:55:29;;;;;;;27.00;18.73;;;;;;;12.89;40.56;97419.63;8347569;28;20250;-94
2022/03/29 06:59:33;;;;;;;24.57;18.10;;;;;;;13.08;40.56;97422.75;8348445;28;20232;-92
2022/03/29 07:03:49;;;;;;;28.90;19.10;;;;;;;13.28;40.73;97424.06;8352418;28;20231;-90
2022/03/29 07:07:53;;;;;;;25.23;18.77;;;;;;;13.29;40.21;97427.53;8356919;28;20235;-90
2022/03/29 07:11:56;;;;;;;33.67;18.77;;;;;;;13.47;39.93;97418.53;8355200;28;20562;-91
2022/03/29 07:16:00;;;;;;;28.77;19.10;;;;;;;13.62;39.87;97418.50;8355590;28;20232;-92
2022/03/29 07:20:04;;;;;;;29.40;17.70;;;;;;;13.78;39.63;97424.34;8355998;28;20299;-91
2022/03/29 07:24:24;;;;;;;27.07;17.87;;;;;;;13.97;39.38;97428.34;8355561;28;20311;-91
2022/03/29 07:28:27;;;;;;;24.47;18.60;;;;;;;14.12;39.12;97434.28;8356684;28;20254;-92
2022/03/29 07:32:34;;;;;;;23.93;18.67;;;;;;;14.26;38.83;97432.44;8354615;28;20235;-94
2022/03/29 07:36:38;;;;;;;20.17;12.00;;;;;;;14.76;54.91;97437.72;8339667;28;20240;-91
2022/03/29 07:40:44;;;;;;;30.80;19.37;;;;;;;14.62;38.16;97424.81;8360391;28;20243;-92
2022/03/29 07:44:49;;;;;;;30.30;19.60;;;;;;;14.58;37.88;97428.59;8337827;28;20258;-90
2022/03/29 07:48:52;;;;;;;27.07;18.67;;;;;;;14.66;38.38;97427.13;8334347;28;20239;-90
2022/03/29 07:53:15;;;;;;;22.87;18.97;;;;;;;15.01;38.02;97425.59;8335061;28;20239;-90
2022/03/29 07:57:20;;;;;;;28.63;19.47;;;;;;;15.23;37.77;97420.50;8348627;28;20291;-90
2022/03/29 08:01:44;;;;;;;12.97;5.10;;;;;;;16.34;54.51;97419.34;8345530;28;20229;-91
2022/03/29 08:05:49;;;;;;;19.03;11.93;;;;;;;17.58;46.09;97432.28;8355985;28;20232;-90
2022/03/29 08:09:52;;;;;;;29.20;15.63;;;;;;;18.29;39.20;97414.19;8357962;28;20232;-91
2022/03/29 08:13:57;;;;;;;21.87;15.03;;;;;;;18.65;37.15;97408.56;8359912;28;20290;-90
2022/03/29 08:18:00;;;;;;;19.50;15.57;;;;;;;18.90;34.96;97421.22;8359920;28;20239;-91
2022/03/29 08:22:04;;;;;;;18.47;14.23;;;;;;;19.06;33.99;97414.66;8343450;28;20246;-92
2022/03/29 08:26:07;;;;;;;20.73;14.30;;;;;;;19.40;32.73;97424.78;8358904;28;20240;-91
2022/03/29 08:30:13;;;;;;;16.47;13.80;;;;;;;19.50;32.51;97413.31;8337311;28;20240;-91
2022/03/29 08:34:18;;;;;;;17.83;13.57;;;;;;;19.88;31.67;97426.63;8359458;28;20242;-91
2022/03/29 08:38:22;;;;;;;19.23;13.13;;;;;;;20.13;31.28;97427.84;8357072;28;20240;-91
2022/03/29 08:42:27;;;;;;;19.20;14.18;;;;;;;20.34;30.48;97419.78;8355589;28;20434;-89
2022/03/29 08:46:38;;;;;;;20.10;14.23;;;;;;;20.48;29.80;97418.47;8356260;28;20406;-89
2022/03/29 08:50:41;;;;;;;18.17;12.97;;;;;;;20.56;30.05;97413.34;8359606;28;20238;-88
2022/03/29 08:54:45;;;;;;;20.00;15.23;;;;;;;20.68;29.49;97408.75;8357852;28;20232;-88
2022/03/29 08:58:48;;;;;;;19.33;14.10;;;;;;;21.14;29.78;97411.44;8322393;28;20420;-88
2022/03/29 09:02:53;;;;;;;21.13;15.47;;;;;;;21.06;29.28;97399.00;8342878;28;20232;-88
2022/03/29 09:07:00;;;;;;;25.33;16.03;;;;;;;21.27;29.81;97409.25;8358014;28;20293;-88
2022/03/29 09:11:04;;;;;;;21.40;15.57;;;;;;;21.36;29.35;97407.53;8356875;28;20234;-87
2022/03/29 09:15:09;;;;;;;22.87;16.43;;;;;;;21.57;28.51;97402.84;8350651;28;20245;-87
2022/03/29 09:19:14;;;;;;;23.67;16.80;;;;;;;21.77;29.40;97402.66;8356352;28;20237;-87
2022/03/29 09:23:18;;;;;;;25.63;18.27;;;;;;;21.94;28.87;97390.44;8355852;28;20236;-87
2022/03/29 09:27:21;;;;;;;23.67;17.87;;;;;;;22.18;28.65;97395.03;8354338;28;20240;-87
2022/03/29 09:31:46;;;;;;;23.77;17.47;;;;;;;22.45;28.25;97391.47;8357055;28;20238;-87
2022/03/29 09:35:56;;;;;;;30.77;19.60;;;;;;;22.10;27.56;97387.91;8356654;28;20231;-87
2022/03/29 09:40:04;;;;;;;28.33;18.20;;;;;;;22.41;27.28;97385.66;8356801;28;20228;-87
2022/03/29 09:44:09;;;;;;;27.13;18.07;;;;;;;22.36;27.24;97374.75;8356596;28;20417;-88
2022/03/29 09:48:27;;;;;;;29.87;18.97;;;;;;;22.13;27.27;97376.25;8356898;28;20529;-87
2022/03/29 09:52:33;;;;;;;26.70;18.27;;;;;;;21.61;28.22;97369.94;8357518;28;20295;-87
2022/03/29 09:56:38;;;;;;;29.40;18.83;;;;;;;21.84;28.07;97380.81;8356808;28;20301;-87
2022/03/29 10:00:51;;;;;;;28.60;18.30;;;;;;;21.96;27.92;97373.47;8352178;28;20227;-87
2022/03/29 10:04:55;;;;;;;26.17;17.77;;;;;;;22.39;26.60;97374.44;8322278;28;20307;-88
2022/03/29 10:13:23;;;;;;;29.97;18.07;;;;;;;22.65;27.13;97352.44;8323760;28;20228;-87
2022/03/29 10:17:29;;;;;;;30.83;18.70;;;;;;;22.76;26.46;97346.88;8327096;28;20237;-87
2022/03/29 10:21:33;;;;;;;44.57;19.97;;;;;;;22.79;26.13;97345.72;8333430;28;20239;-88
2022/03/29 10:25:39;;;;;;;24.00;19.57;;;;;;;22.73;27.52;97341.09;8328242;28;20271;-93
2022/03/29 10:29:43;;;;;;;25.70;18.47;;;;;;;22.37;27.78;97326.31;8330071;28;20229;-95
2022/03/29 10:33:47;;;;;;;31.90;17.20;;;;;;;22.26;27.64;97321.28;8327027;28;20237;-95
2022/03/29 10:37:55;;;;;;;30.80;20.27;;;;;;;22.57;26.78;97332.13;8325650;28;20232;-93
2022/03/29 10:42:01;;;;;;;22.13;16.70;;;;;;;22.94;27.12;97315.09;8337314;28;20231;-95
2022/03/29 10:46:22;;;;;;;29.23;19.77;;;;;;;22.99;26.14;97315.44;8354828;28;20230;-96
2022/03/29 10:51:09;;;;;;;31.23;20.53;;;;;;;22.96;26.80;97313.13;8344543;28;20242;-96
2022/03/29 10:55:20;;;;;;;30.30;22.23;;;;;;;23.16;27.37;97313.69;8340169;28;20373;-94
2022/03/29 10:59:25;;;;;;;24.70;20.73;;;;;;;23.27;26.79;97304.63;8338858;28;20267;-96
2022/03/29 11:03:33;;;;;;;27.13;21.60;;;;;;;23.05;27.71;97305.25;8341419;28;27578;-95
2022/03/29 11:07:38;;;;;;;32.10;22.13;;;;;;;22.77;27.89;97298.41;8335149;28;20243;-94
2022/03/29 11:11:46;;;;;;;31.67;24.20;;;;;;;22.95;27.57;97290.34;8324132;28;20235;-96
2022/03/29 11:15:57;;;;;;;30.77;24.77;;;;;;;22.82;27.38;97288.16;8320739;28;20314;-94
2022/03/29 11:20:01;;;;;;;27.97;21.93;;;;;;;22.95;27.29;97281.59;8326187;28;20575;-94
2022/03/29 11:28:26;;;;;;;32.47;24.17;;;;;;;22.52;28.76;97281.66;8336658;28;20227;-88
2022/03/29 11:32:32;;;;;;;29.63;22.47;;;;;;;22.28;29.91;97268.41;8341615;28;20243;-89
2022/03/29 11:36:39;;;;;;;31.30;23.50;;;;;;;22.31;29.12;97262.78;8335151;28;20228;-88
2022/03/29 11:40:44;;;;;;;33.63;20.63;;;;;;;22.05;30.35;97256.56;8335349;28;20449;-88
2022/03/29 11:44:48;;;;;;;36.20;22.60;;;;;;;21.86;30.05;97259.44;8337187;28;20508;-88
2022/03/29 11:48:56;;;;;;;30.77;22.60;;;;;;;21.89;30.53;97256.47;8339605;28;20237;-89
2022/03/29 11:53:00;;;;;;;36.33;23.03;;;;;;;22.16;30.44;97254.63;8350380;28;20292;-89
2022/03/29 11:57:21;;;;;;;35.30;26.83;;;;;;;22.22;29.05;97249.56;8352812;28;20515;-88
2022/03/29 12:01:27;;;;;;;36.53;24.17;;;;;;;22.41;30.09;97252.94;8353383;28;20266;-88
2022/03/29 12:05:32;;;;;;;29.13;22.47;;;;;;;22.38;29.63;97237.44;8353669;28;20429;-88
2022/03/29 12:09:35;;;;;;;28.13;21.97;;;;;;;22.40;29.99;97238.91;8353748;28;20247;-89
2022/03/29 12:13:38;;;;;;;35.50;26.07;;;;;;;22.67;28.73;97226.44;8353492;28;20232;-89
2022/03/29 12:17:52;;;;;;;34.13;26.43;;;;;;;22.66;29.04;97214.25;8353179;28;20284;-88
2022/03/29 12:22:02;;;;;;;34.27;23.37;;;;;;;22.55;29.49;97210.09;8342417;28;20239;-89
2022/03/29 12:26:05;;;;;;;35.63;26.03;;;;;;;22.38;29.24;97200.50;8337120;28;20266;-89
2022/03/29 12:30:11;;;;;;;26.27;18.20;;;;;;;22.67;30.51;97193.97;8340916;28;20231;-92
2022/03/29 12:34:21;;;;;;;30.87;21.60;;;;;;;22.33;30.14;97176.41;8317636;28;20240;-91
2022/03/29 12:38:26;;;;;;;31.77;23.73;;;;;;;22.19;30.10;97181.28;8338318;28;20306;-88
2022/03/29 12:42:31;;;;;;;38.37;26.40;;;;;;;22.29;29.89;97175.09;8340634;28;20239;-90
2022/03/29 12:46:35;;;;;;;32.80;23.23;;;;;;;22.34;29.92;97168.34;8346494;28;20288;-90
2022/03/29 12:50:40;;;;;;;34.67;25.30;;;;;;;22.20;30.38;97158.38;8351593;28;20228;-89
2022/03/29 12:54:49;;;;;;;33.27;21.40;;;;;;;22.42;30.20;97165.72;8356701;28;20273;-89
2022/03/29 12:58:52;;;;;;;36.07;25.40;;;;;;;22.20;29.63;97151.31;8365675;28;20262;-89
2022/03/29 13:02:55;;;;;;;32.63;22.57;;;;;;;22.37;30.54;97146.94;8358330;28;20428;-90
2022/03/29 13:07:41;;;;;;;30.77;23.80;;;;;;;22.27;29.79;97140.97;8357962;28;20238;-90
2022/03/29 13:11:47;;;;;;;34.77;26.87;;;;;;;22.13;31.22;97134.47;8358536;28;20325;-90
2022/03/29 13:15:51;;;;;;;38.17;23.70;;;;;;;22.23;31.20;97135.16;8340457;28;20224;-89
2022/03/29 13:19:58;;;;;;;35.17;23.03;;;;;;;21.71;31.45;97116.06;8357279;28;20232;-90
2022/03/29 13:24:12;;;;;;;30.30;21.97;;;;;;;21.98;29.77;97122.91;8358710;28;20444;-89
2022/03/29 13:28:20;;;;;;;39.20;24.03;;;;;;;21.69;31.16;97116.22;8355285;28;20259;-91
2022/03/29 13:32:23;;;;;;;38.73;23.83;;;;;;;21.74;29.80;97110.47;8356421;28;20288;-90
2022/03/29 13:36:28;;;;;;;26.97;19.70;;;;;;;21.89;31.76;97093.06;8359027;28;20514;-90
2022/03/29 13:40:32;;;;;;;33.00;21.57;;;;;;;21.95;28.83;97096.84;8346661;28;20228;-90
2022/03/29 13:44:37;;;;;;;28.07;20.27;;;;;;;22.26;28.97;97097.13;8331400;28;20356;-90
2022/03/29 13:48:44;;;;;;;31.17;20.50;;;;;;;22.41;28.20;97090.22;8356472;28;20323;-90
2022/03/29 13:52:48;;;;;;;30.63;20.63;;;;;;;21.91;28.50;97082.34;8354513;28;20588;-88
2022/03/29 13:56:52;;;;;;;29.53;20.70;;;;;;;21.85;27.94;97076.72;8353475;28;20242;-90
2022/03/29 14:01:01;;;;;;;26.70;17.83;;;;;;;21.94;27.47;97072.31;8354572;28;20228;-90
2022/03/29 14:05:05;;;;;;;27.57;16.77;;;;;;;21.72;28.71;97065.00;8345294;28;20259;-91
2022/03/29 14:09:09;;;;;;;26.20;19.67;;;;;;;21.75;27.49;97067.34;8324641;28;20347;-90
2022/03/29 14:13:13;;;;;;;22.10;14.20;;;;;;;21.95;30.30;97062.59;8325109;28;20238;-90
2022/03/29 14:17:20;;;;;;;28.63;15.70;;;;;;;21.86;28.40;97059.94;8331741;28;20224;-90
2022/03/29 14:21:24;;;;;;;28.13;19.90;;;;;;;21.62;25.79;97051.97;8330965;28;20232;-89
2022/03/29 14:25:28;;;;;;;27.30;18.00;;;;;;;21.15;26.12;97042.72;8323839;28;20238;-90
2022/03/29 14:29:31;;;;;;;23.97;15.13;;;;;;;20.91;26.44;97038.13;8323180;28;20231;-92
2022/03/29 14:33:55;;;;;;;21.33;15.63;;;;;;;20.74;26.71;97029.31;8318260;28;20334;-90
2022/03/29 14:37:59;;;;;;;21.17;15.73;;;;;;;20.93;26.89;97030.09;8341752;28;20545;-88
2022/03/29 14:42:03;;;;;;;25.20;17.37;;;;;;;20.74;26.71;97021.41;8348675;28;20231;-90
2022/03/29 14:46:06;;;;;;;29.17;17.90;;;;;;;20.56;26.62;97025.84;8345344;28;20296;-90
2022/03/29 14:50:16;;;;;;;22.50;16.97;;;;;;;20.33;26.74;97025.53;8323241;28;20223;-89
2022/03/29 14:54:19;;;;;;;23.00;15.13;;;;;;;20.19;27.42;97026.91;8328788;28;20232;-89
2022/03/29 14:58:23;;;;;;;21.30;15.17;;;;;;;20.18;27.39;97019.97;8318073;28;20263;-89
2022/03/29 15:02:26;;;;;;;26.47;16.97;;;;;;;20.07;27.94;97026.31;8326498;28;20465;-88
2022/03/29 15:06:31;;;;;;;26.07;16.73;;;;;;;20.02;28.27;97023.28;8318284;28;20233;-89
2022/03/29 15:10:35;;;;;;;20.83;16.00;;;;;;;19.83;28.58;97014.56;8347848;28;20228;-89
2022/03/29 15:14:42;;;;;;;23.70;18.00;;;;;;;19.61;28.73;97002.69;8342912;28;20548;-89
2022/03/29 15:18:45;;;;;;;21.43;14.20;;;;;;;19.68;29.37;97002.91;8348817;28;20233;-89
2022/03/29 15:22:50;;;;;;;19.30;14.43;;;;;;;19.62;29.12;96991.19;8349172;28;20233;-88
2022/03/29 15:26:56;;;;;;;22.50;14.33;;;;;;;19.59;28.93;96982.78;8350905;28;20228;-89
2022/03/29 15:31:01;;;;;;;18.40;14.33;;;;;;;19.52;29.34;96990.44;8357239;28;20228;-89
2022/03/29 15:35:05;;;;;;;22.27;14.00;;;;;;;19.48;30.01;96986.47;8366742;28;20239;-88
2022/03/29 15:39:10;;;;;;;21.73;13.13;;;;;;;19.18;30.08;96975.28;8361100;28;20238;-86
2022/03/29 15:43:16;;;;;;;19.30;13.17;;;;;;;19.31;29.91;96975.75;8353357;28;20346;-89
2022/03/29 15:47:21;;;;;;;18.07;12.10;;;;;;;19.37;29.72;96973.53;8354043;28;20236;-88
2022/03/29 15:51:24;;;;;;;20.27;12.27;;;;;;;19.38;30.05;96969.91;8354113;28;20543;-89
2022/03/29 15:55:31;;;;;;;18.73;12.07;;;;;;;19.24;29.88;96972.06;8353519;28;20236;-88
2022/03/29 15:59:34;;;;;;;15.70;11.67;;;;;;;19.02;30.51;96968.06;8353521;28;20235;-90
2022/03/29 16:03:40;;;;;;;18.80;11.30;;;;;;;19.19;30.88;96963.81;8327781;28;20565;-88
2022/03/29 16:07:43;;;;;;;17.70;11.57;;;;;;;19.13;31.20;96962.63;8327314;28;20255;-89
2022/03/29 16:11:48;;;;;;;15.73;11.60;;;;;;;19.05;31.55;96959.06;8353238;28;20263;-88
2022/03/29 16:15:52;;;;;;;16.80;13.73;;;;;;;18.80;31.89;96957.91;8334735;28;20237;-87
2022/03/29 16:19:55;;;;;;;18.27;14.97;;;;;;;18.95;31.97;96965.16;8320062;28;20566;-89
2022/03/29 16:23:59;;;;;;;19.90;14.87;;;;;;;18.92;31.80;96962.00;8318567;28;20240;-87
2022/03/29 16:28:04;;;;;;;24.60;15.80;;;;;;;18.88;32.16;96953.59;8319960;28;20236;-88
2022/03/29 16:32:08;;;;;;;41.63;16.67;;;;;;;18.89;32.15;96951.81;8318851;28;20591;-88
2022/03/29 16:36:11;;;;;;;36.17;17.23;;;;;;;18.81;32.34;96955.16;8317982;28;20531;-88
2022/03/29 16:40:14;;;;;;;27.93;16.70;;;;;;;18.86;32.08;96954.72;8318226;28;20248;-88
2022/03/29 16:44:18;;;;;;;37.40;22.70;;;;;;;18.72;32.01;96946.31;8317694;28;20233;-88
2022/03/29 16:48:22;;;;;;;33.73;22.33;;;;;;;18.66;32.51;96948.72;8318024;28;20240;-88
2022/03/29 16:52:25;;;;;;;23.63;15.70;;;;;;;18.65;32.04;96947.84;8317698;28;20237;-88
2022/03/29 16:56:29;;;;;;;26.80;16.47;;;;;;;18.67;32.76;96939.84;8319327;28;20237;-91
2022/03/29 17:00:39;;;;;;;30.93;16.50;;;;;;;18.56;32.61;96935.59;8320583;28;20241;-96
2022/03/29 17:04:42;;;;;;;38.73;26.10;;;;;;;18.54;32.36;96927.91;8352207;28;20232;-91
2022/03/29 17:08:46;;;;;;;30.70;17.57;;;;;;;18.48;32.94;96925.84;8351390;28;20306;-92
2022/03/29 17:12:49;;;;;;;24.00;15.20;;;;;;;18.51;33.24;96927.38;8351335;28;20239;-91
2022/03/29 17:16:54;;;;;;;22.37;15.40;;;;;;;18.50;33.01;96928.31;8350065;28;20232;-93
2022/03/29 17:20:57;;;;;;;26.13;16.40;;;;;;;18.40;33.00;96938.00;8349711;28;20247;-92
2022/03/29 17:25:01;;;;;;;105.77;72.23;;;;;;;18.73;41.44;96937.50;8351706;28;20236;-91
2022/03/29 17:29:05;;;;;;;72.43;47.30;;;;;;;18.74;38.80;96938.31;8351850;28;20232;-91
2022/03/29 17:33:12;;;;;;;50.67;35.30;;;;;;;18.75;36.79;96948.66;8351374;28;20281;-89
2022/03/29 17:37:16;;;;;;;42.20;28.87;;;;;;;18.72;37.21;96943.69;8350281;28;20302;-95
2022/03/29 17:41:19;;;;;;;35.77;21.57;;;;;;;18.22;36.91;96943.13;8352368;28;20236;-90
2022/03/29 17:45:22;;;;;;;22.23;15.03;;;;;;;17.98;34.84;96941.81;8351427;28;20236;-95
2022/03/29 17:49:27;;;;;;;15.37;10.77;;;;;;;18.30;34.34;96940.66;8351774;28;20291;-85
2022/03/29 17:53:30;;;;;;;13.57;8.23;;;;;;;17.99;33.29;96930.34;8349293;28;20295;-87
2022/03/29 17:57:33;;;;;;;13.70;7.13;;;;;;;17.72;32.82;96938.88;8351828;28;20232;-87
2022/03/29 18:01:36;;;;;;;11.60;7.13;;;;;;;17.62;33.25;96928.41;8350091;28;20236;-86
2022/03/29 18:05:41;;;;;;;8.00;5.47;;;;;;;17.75;32.92;96923.72;8350021;28;20232;-86
2022/03/29 18:09:44;;;;;;;14.20;6.97;;;;;;;17.71;32.75;96930.19;8349864;28;20240;-86
2022/03/29 18:13:48;;;;;;;17.87;10.10;;;;;;;17.37;32.87;96940.25;8349596;28;20228;-87
2022/03/29 18:17:51;;;;;;;13.60;8.00;;;;;;;17.36;33.30;96938.56;8349533;28;20231;-87
2022/03/29 18:21:58;;;;;;;11.03;7.43;;;;;;;17.11;33.77;96937.28;8348201;28;20294;-86
2022/03/29 18:26:03;;;;;;;11.87;7.23;;;;;;;17.23;33.65;96940.59;8352523;28;20232;-86
2022/03/29 18:30:09;;;;;;;10.23;7.57;;;;;;;17.12;33.95;96936.34;8351129;28;20234;-85
2022/03/29 18:34:12;;;;;;;12.00;7.80;;;;;;;17.07;34.18;96933.28;8347504;28;20274;-85
2022/03/29 18:38:18;;;;;;;15.43;8.53;;;;;;;17.06;34.43;96931.63;8347928;28;20295;-85
2022/03/29 18:42:21;;;;;;;14.40;7.97;;;;;;;16.93;34.53;96930.09;8348252;28;20243;-86
2022/03/29 18:46:24;;;;;;;8.40;7.07;;;;;;;16.95;34.49;96938.63;8324702;28;20240;-86
2022/03/29 18:50:39;;;;;;;8.60;6.83;;;;;;;17.07;34.32;96935.91;8322181;28;20229;-85
2022/03/29 18:54:47;;;;;;;9.20;6.90;;;;;;;16.98;34.13;96925.28;8329710;28;20228;-87
2022/03/29 18:58:52;;;;;;;9.60;7.47;;;;;;;16.89;34.34;96926.09;8343954;28;20280;-85
2022/03/29 19:02:56;;;;;;;12.70;7.93;;;;;;;16.77;34.67;96925.34;8341361;28;20550;-86
2022/03/29 19:06:59;;;;;;;14.43;7.83;;;;;;;16.94;34.45;96923.88;8339137;28;20259;-86